createdAt,value
2023-01-12T00:01:39.016Z,11.50
2023-01-12T00:03:41.026Z,12.33
2023-01-12T00:05:43.006Z,7.80
2023-01-12T00:07:44.967Z,5.77
2023-01-12T00:09:46.984Z,27.83
2023-01-12T00:11:48.991Z,15.00
2023-01-12T00:13:50.980Z,10.83
2023-01-12T00:16:16.056Z,12.03
2023-01-12T00:18:18.083Z,10.23
2023-01-12T00:20:20.123Z,14.93
2023-01-12T00:22:22.137Z,9.40
2023-01-12T00:24:31.608Z,11.27
2023-01-12T00:26:33.575Z,14.73
2023-01-12T00:28:36.272Z,6.23
2023-01-12T00:30:38.276Z,7.13
2023-01-12T00:32:40.299Z,11.60
2023-01-12T00:34:42.657Z,10.40
2023-01-12T00:36:46.264Z,7.90
2023-01-12T00:38:48.460Z,10.30
2023-01-12T00:40:50.474Z,9.80
2023-01-12T00:43:11.005Z,15.33
2023-01-12T00:45:22.081Z,10.53
2023-01-12T00:47:24.162Z,7.77
2023-01-12T00:49:26.179Z,9.73
2023-01-12T00:51:28.183Z,9.97
2023-01-12T00:53:31.167Z,6.03
2023-01-12T00:55:33.199Z,9.80
2023-01-12T00:57:35.142Z,10.63
2023-01-12T00:59:37.175Z,8.90
2023-01-12T01:01:39.367Z,11.27
2023-01-12T01:03:41.461Z,7.80
2023-01-12T01:05:43.389Z,13.10
2023-01-12T01:07:47.267Z,7.37
2023-01-12T01:09:49.570Z,5.03
2023-01-12T01:11:51.545Z,12.13
2023-01-12T01:13:54.436Z,6.73
2023-01-12T01:16:00.067Z,9.23
2023-01-12T01:18:02.289Z,8.80
2023-01-12T01:20:04.761Z,11.63
2023-01-12T01:22:06.733Z,8.00
2023-01-12T01:24:13.068Z,10.03
2023-01-12T01:26:18.221Z,5.77
2023-01-12T01:28:20.612Z,10.30
2023-01-12T01:30:22.593Z,7.73
2023-01-12T01:32:24.654Z,7.90
2023-01-12T01:34:26.711Z,11.00
2023-01-12T01:36:28.740Z,7.63
2023-01-12T01:38:30.762Z,4.67
2023-01-12T01:40:33.585Z,12.70
2023-01-12T01:42:35.584Z,7.17
2023-01-12T01:44:43.322Z,13.63
2023-01-12T01:46:49.387Z,5.20
2023-01-12T01:48:51.581Z,5.20
2023-01-12T01:50:58.107Z,10.37
2023-01-12T01:53:04.219Z,10.03
2023-01-12T01:55:13.367Z,9.67
2023-01-12T01:57:15.644Z,8.37
2023-01-12T01:59:21.988Z,7.90
2023-01-12T02:01:24.454Z,8.20
2023-01-12T02:03:28.009Z,11.57
2023-01-12T02:05:30.311Z,9.37
2023-01-12T02:07:33.008Z,4.10
2023-01-12T02:09:35.011Z,11.23
2023-01-12T02:11:55.659Z,5.90
2023-01-12T02:14:16.555Z,12.20
2023-01-12T02:16:25.699Z,5.53
2023-01-12T02:18:34.307Z,7.43
2023-01-12T02:20:54.724Z,8.93
2023-01-12T02:23:21.718Z,5.03
2023-01-12T02:25:42.793Z,12.97
2023-01-12T02:27:54.772Z,18.37
2023-01-12T02:30:20.896Z,3.43
2023-01-12T02:32:41.794Z,8.87
2023-01-12T02:35:05.341Z,5.93
2023-01-12T02:37:45.192Z,7.73
2023-01-12T02:39:59.891Z,6.77
2023-01-12T02:42:26.277Z,9.83
2023-01-12T02:44:36.136Z,12.67
2023-01-12T02:46:39.240Z,8.33
2023-01-12T02:49:02.190Z,7.53
2023-01-12T02:51:09.755Z,4.13
2023-01-12T02:53:29.515Z,6.53
2023-01-12T02:55:32.072Z,6.87
2023-01-12T02:57:35.409Z,9.00
2023-01-12T02:59:39.790Z,13.03
2023-01-12T03:01:43.115Z,5.73
2023-01-12T03:03:45.401Z,4.90
2023-01-12T03:05:47.618Z,5.67
2023-01-12T03:07:54.526Z,5.93
2023-01-12T03:10:00.379Z,8.63
2023-01-12T03:12:06.594Z,8.70
2023-01-12T03:14:09.191Z,3.80
2023-01-12T03:16:13.316Z,6.10
2023-01-12T03:18:27.374Z,15.13
2023-01-12T03:20:35.017Z,5.57
2023-01-12T03:22:38.376Z,12.13
2023-01-12T03:24:44.126Z,3.40
2023-01-12T03:26:49.804Z,7.93
2023-01-12T03:28:56.409Z,10.60
2023-01-12T03:31:08.941Z,7.83
2023-01-12T03:33:11.614Z,10.20
2023-01-12T03:35:14.110Z,8.43
2023-01-12T03:37:21.847Z,6.03
2023-01-12T03:39:43.495Z,5.80
2023-01-12T03:41:51.476Z,6.10
2023-01-12T03:43:57.937Z,5.67
2023-01-12T03:46:10.068Z,7.00
2023-01-12T03:48:18.177Z,10.83
2023-01-12T03:50:27.431Z,8.03
2023-01-12T03:52:30.453Z,6.37
2023-01-12T03:54:33.614Z,6.63
2023-01-12T03:56:36.249Z,11.87
2023-01-12T03:58:38.344Z,13.23
2023-01-12T04:00:40.517Z,6.57
2023-01-12T04:02:45.979Z,7.07
2023-01-12T04:04:48.018Z,15.40
2023-01-12T04:06:50.020Z,10.10
2023-01-12T04:08:52.033Z,8.87
2023-01-12T04:10:54.003Z,11.03
2023-01-12T04:12:55.977Z,6.43
2023-01-12T04:14:58.917Z,12.57
2023-01-12T04:17:00.886Z,5.23
2023-01-12T04:19:02.848Z,13.40
2023-01-12T04:21:04.949Z,10.93
2023-01-12T04:23:07.272Z,10.17
2023-01-12T04:25:13.092Z,17.97
2023-01-12T04:27:16.062Z,8.13
2023-01-12T04:29:18.008Z,6.17
2023-01-12T04:31:20.137Z,13.23
2023-01-12T04:33:22.067Z,6.33
2023-01-12T04:35:24.918Z,15.83
2023-01-12T04:37:26.915Z,10.97
2023-01-12T04:39:29.588Z,14.03
2023-01-12T04:41:31.643Z,16.30
2023-01-12T04:43:34.529Z,7.30
2023-01-12T04:45:39.079Z,9.00
2023-01-12T04:47:41.171Z,8.43
2023-01-12T04:49:43.110Z,7.20
2023-01-12T04:51:45.322Z,5.70
2023-01-12T04:53:48.309Z,6.70
2023-01-12T04:55:50.386Z,4.63
2023-01-12T04:57:52.534Z,3.87
2023-01-12T04:59:54.588Z,7.00
2023-01-12T05:01:56.647Z,6.33
2023-01-12T05:04:02.280Z,9.63
2023-01-12T05:06:04.717Z,7.27
2023-01-12T05:08:25.889Z,7.23
2023-01-12T05:10:30.002Z,11.53
2023-01-12T05:12:32.054Z,8.30
2023-01-12T05:14:34.134Z,12.70
2023-01-12T05:16:36.157Z,11.10
2023-01-12T05:18:38.499Z,4.37
2023-01-12T05:20:40.580Z,9.40
2023-01-12T05:22:42.683Z,13.73
2023-01-12T05:24:44.705Z,4.40
2023-01-12T05:26:46.704Z,4.47
2023-01-12T05:28:50.090Z,7.07
2023-01-12T05:30:52.137Z,12.00
2023-01-12T05:32:54.629Z,9.40
2023-01-12T05:34:56.592Z,14.67
2023-01-12T05:36:58.545Z,9.83
2023-01-12T05:39:00.603Z,10.27
2023-01-12T05:41:04.624Z,6.70
2023-01-12T05:43:25.066Z,10.37
2023-01-12T05:45:27.188Z,4.80
2023-01-12T05:47:29.268Z,8.30
2023-01-12T05:49:31.279Z,9.67
2023-01-12T05:51:33.249Z,12.83
2023-01-12T05:53:35.445Z,8.50
2023-01-12T05:55:39.240Z,10.30
2023-01-12T05:57:41.187Z,8.70
2023-01-12T05:59:43.190Z,8.00
2023-01-12T06:01:45.161Z,5.03
2023-01-12T06:03:51.363Z,5.10
2023-01-12T06:05:55.775Z,6.10
2023-01-12T06:07:58.537Z,3.17
2023-01-12T06:10:00.725Z,7.40
2023-01-12T06:12:21.578Z,7.83
2023-01-12T06:14:23.712Z,3.30
2023-01-12T06:16:26.949Z,7.90
2023-01-12T06:18:29.134Z,7.13
2023-01-12T06:20:31.510Z,7.17
2023-01-12T06:22:33.602Z,6.40
2023-01-12T06:24:35.874Z,6.53
2023-01-12T06:26:38.210Z,4.13
2023-01-12T06:28:42.555Z,4.07
2023-01-12T06:30:44.782Z,10.87
2023-01-12T06:32:46.904Z,6.13
2023-01-12T06:34:48.899Z,8.97
2023-01-12T06:36:50.885Z,3.13
2023-01-12T06:38:52.853Z,4.13
2023-01-12T06:40:57.280Z,6.83
2023-01-12T06:42:59.321Z,10.40
2023-01-12T06:45:05.362Z,5.27
2023-01-12T06:47:07.702Z,6.80
2023-01-12T06:49:16.676Z,7.80
2023-01-12T06:51:18.774Z,5.80
2023-01-12T06:53:20.771Z,12.73
2023-01-12T06:55:22.717Z,9.23
2023-01-12T06:57:24.679Z,7.60
2023-01-12T06:59:26.684Z,4.87
2023-01-12T07:01:28.958Z,5.33
2023-01-12T07:03:31.163Z,6.67
2023-01-12T07:05:33.689Z,7.23
2023-01-12T07:07:39.284Z,9.57
2023-01-12T07:09:42.098Z,5.73
2023-01-12T07:11:44.106Z,6.17
2023-01-12T07:13:46.137Z,5.47
2023-01-12T07:15:48.162Z,5.60
2023-01-12T07:17:56.076Z,5.70
2023-01-12T07:19:58.228Z,4.83
2023-01-12T07:22:00.240Z,3.87
2023-01-12T07:24:02.399Z,6.43
2023-01-12T07:26:04.704Z,1.97
2023-01-12T07:28:06.754Z,5.50
2023-01-12T07:30:09.509Z,4.17
2023-01-12T07:32:11.501Z,3.33
2023-01-12T07:34:13.406Z,6.47
2023-01-12T07:36:16.146Z,7.00
2023-01-12T07:38:18.213Z,9.50
2023-01-12T07:40:20.786Z,3.73
2023-01-12T07:42:25.602Z,6.33
2023-01-12T07:44:27.783Z,4.27
2023-01-12T07:46:29.804Z,5.70
2023-01-12T07:48:33.272Z,6.43
2023-01-12T07:50:36.911Z,2.50
2023-01-12T07:52:38.953Z,3.43
2023-01-12T07:54:41.112Z,3.73
2023-01-12T07:56:44.322Z,7.40
2023-01-12T07:58:49.694Z,6.93
2023-01-12T08:00:51.718Z,4.47
2023-01-12T08:02:54.911Z,4.10
2023-01-12T08:04:57.039Z,6.50
2023-01-12T08:06:59.141Z,5.67
2023-01-12T08:09:01.262Z,4.47
2023-01-12T08:11:08.300Z,4.70
2023-01-12T08:13:10.359Z,4.63
2023-01-12T08:15:12.662Z,3.73
2023-01-12T08:17:18.489Z,7.67
2023-01-12T08:19:24.790Z,7.70
2023-01-12T08:21:30.598Z,9.77
2023-01-12T08:23:35.917Z,6.23
2023-01-12T08:25:44.588Z,3.33
2023-01-12T08:27:50.115Z,2.80
2023-01-12T08:29:56.224Z,5.43
2023-01-12T08:32:02.649Z,10.93
2023-01-12T08:34:07.845Z,5.37
2023-01-12T08:38:15.344Z,6.60
2023-01-12T08:40:17.802Z,6.97
2023-01-12T08:42:20.705Z,5.43
2023-01-12T08:44:23.051Z,11.67
2023-01-12T08:46:25.285Z,9.17
2023-01-12T08:48:27.361Z,9.57
2023-01-12T08:50:29.335Z,14.83
2023-01-12T08:52:34.196Z,11.63
2023-01-12T08:54:36.376Z,7.03
2023-01-12T08:56:38.475Z,16.33
2023-01-12T08:58:40.485Z,14.07
2023-01-12T09:00:42.507Z,13.30
2023-01-12T09:02:44.638Z,9.30
2023-01-12T09:04:46.725Z,9.43
2023-01-12T09:06:48.836Z,7.67
2023-01-12T09:09:11.080Z,5.30
2023-01-12T09:11:14.678Z,15.47
2023-01-12T09:13:16.701Z,45.90
2023-01-12T09:15:18.766Z,16.83
2023-01-12T09:17:22.973Z,15.63
2023-01-12T09:19:25.026Z,8.57
2023-01-12T09:21:28.242Z,19.23
2023-01-12T09:23:30.600Z,5.73
2023-01-12T09:25:34.085Z,13.73
2023-01-12T09:27:37.287Z,5.23
2023-01-12T09:29:39.260Z,5.53
2023-01-12T09:31:43.971Z,6.63
2023-01-12T09:33:46.596Z,8.10
2023-01-12T09:35:48.576Z,8.50
2023-01-12T09:37:50.739Z,4.73
2023-01-12T09:39:52.777Z,7.13
2023-01-12T09:42:13.967Z,5.57
2023-01-12T09:44:56.946Z,9.67
2023-01-12T09:46:59.705Z,4.40
2023-01-12T09:49:01.974Z,6.10
2023-01-12T09:51:28.774Z,3.70
2023-01-12T09:53:33.461Z,3.07
2023-01-12T09:55:57.753Z,15.33
2023-01-12T09:58:07.706Z,21.63
2023-01-12T10:00:13.142Z,7.10
2023-01-12T10:02:15.614Z,8.73
2023-01-12T10:04:18.157Z,5.70
2023-01-12T10:06:20.650Z,9.70
2023-01-12T10:08:36.069Z,12.23
2023-01-12T10:10:38.231Z,14.30
2023-01-12T10:12:45.168Z,11.20
2023-01-12T10:15:09.496Z,4.37
2023-01-12T10:17:14.413Z,14.10
2023-01-12T10:19:26.512Z,11.27
2023-01-12T10:21:29.619Z,4.50
2023-01-12T10:23:31.629Z,4.13
2023-01-12T10:25:38.316Z,4.30
2023-01-12T10:27:43.093Z,4.37
2023-01-12T10:29:46.669Z,6.83
2023-01-12T10:31:48.734Z,5.57
2023-01-12T10:34:07.538Z,8.63
2023-01-12T10:36:13.051Z,7.83
2023-01-12T10:38:22.317Z,3.00
2023-01-12T10:40:32.414Z,6.10
2023-01-12T10:43:19.415Z,4.43
2023-01-12T10:45:23.334Z,4.80
2023-01-12T10:47:25.393Z,2.13
2023-01-12T10:49:27.465Z,2.97
2023-01-12T10:51:32.819Z,3.27
2023-01-12T10:53:44.394Z,3.10
2023-01-12T10:55:47.506Z,4.67
2023-01-12T10:57:51.055Z,2.57
2023-01-12T10:59:58.529Z,4.20
2023-01-12T11:02:09.566Z,5.30
2023-01-12T11:04:14.486Z,4.33
2023-01-12T11:06:22.310Z,4.10
2023-01-12T11:08:27.779Z,2.70
2023-01-12T11:10:33.106Z,2.90
2023-01-12T11:12:39.467Z,1.83
2023-01-12T11:14:42.669Z,2.87
2023-01-12T11:16:50.753Z,3.90
2023-01-12T11:19:05.970Z,5.63
2023-01-12T11:21:10.086Z,2.60
2023-01-12T11:23:20.807Z,5.33
2023-01-12T11:25:24.973Z,6.73
2023-01-12T11:27:31.591Z,10.63
2023-01-12T11:29:37.731Z,4.20
2023-01-12T11:31:41.447Z,7.03
2023-01-12T11:33:47.451Z,9.00
2023-01-12T11:36:06.830Z,7.83
2023-01-12T11:38:15.833Z,5.10
2023-01-12T11:40:30.164Z,7.40
2023-01-12T11:42:52.100Z,3.73
2023-01-12T11:44:58.409Z,4.80
2023-01-12T11:47:05.852Z,7.93
2023-01-12T11:49:13.985Z,1.87
2023-01-12T11:51:16.228Z,3.90
2023-01-12T11:53:21.708Z,2.20
2023-01-12T11:55:33.653Z,6.20
2023-01-12T11:57:41.381Z,2.27
2023-01-12T11:59:56.428Z,2.50
2023-01-12T12:01:58.346Z,2.10
2023-01-12T12:04:15.854Z,1.30
2023-01-12T12:06:33.730Z,3.10
2023-01-12T12:08:44.633Z,4.07
2023-01-12T12:11:05.112Z,1.80
2023-01-12T12:13:20.211Z,2.50
2023-01-12T12:15:36.220Z,1.90
2023-01-12T12:17:49.192Z,2.73
2023-01-12T12:20:45.385Z,1.77
2023-01-12T12:23:21.176Z,2.77
2023-01-12T12:25:41.670Z,2.60
2023-01-12T12:28:18.576Z,2.93
2023-01-12T12:31:00.830Z,4.20
2023-01-12T12:33:18.911Z,3.00
2023-01-12T12:35:39.313Z,1.40
2023-01-12T12:38:23.831Z,1.70
2023-01-12T12:41:18.713Z,1.53
2023-01-12T12:43:48.037Z,1.77
2023-01-12T12:45:58.916Z,1.60
2023-01-12T12:48:12.151Z,2.00
2023-01-12T12:50:48.589Z,1.57
2023-01-12T12:53:04.148Z,3.33
2023-01-12T12:55:06.886Z,1.10
2023-01-12T12:57:16.434Z,1.57
2023-01-12T12:59:34.039Z,2.60
2023-01-12T13:01:39.519Z,2.73
2023-01-12T13:03:41.678Z,4.80
2023-01-12T13:05:47.059Z,3.00
2023-01-12T13:07:51.985Z,1.30
2023-01-12T13:10:21.113Z,3.07
2023-01-12T13:12:34.081Z,2.03
2023-01-12T13:14:38.278Z,2.80
2023-01-12T13:16:45.934Z,1.57
2023-01-12T13:18:51.045Z,1.40
2023-01-12T13:20:56.536Z,1.20
2023-01-12T13:22:59.263Z,1.70
2023-01-12T13:25:03.970Z,2.10
2023-01-12T13:27:44.163Z,3.53
2023-01-12T13:29:46.263Z,5.43
2023-01-12T13:31:48.321Z,2.43
2023-01-12T13:33:50.319Z,4.33
2023-01-12T13:35:52.383Z,1.60
2023-01-12T13:38:19.796Z,2.73
2023-01-12T13:40:26.978Z,2.97
2023-01-12T13:42:47.588Z,3.23
2023-01-12T13:44:49.764Z,1.90
2023-01-12T13:46:55.983Z,5.57
2023-01-12T13:48:58.754Z,5.70
2023-01-12T13:51:12.118Z,5.27
2023-01-12T13:53:21.816Z,3.03
2023-01-12T13:55:27.981Z,1.93
2023-01-12T13:57:31.328Z,2.10
2023-01-12T13:59:34.938Z,4.23
2023-01-12T14:01:39.311Z,1.67
2023-01-12T14:03:48.755Z,1.53
2023-01-12T14:06:06.177Z,1.60
2023-01-12T14:08:26.842Z,5.40
2023-01-12T14:10:43.725Z,1.60
2023-01-12T14:13:03.999Z,1.10
2023-01-12T14:15:52.022Z,1.60
2023-01-12T14:18:09.699Z,1.63
2023-01-12T14:20:24.994Z,1.83
2023-01-12T14:22:27.076Z,5.53
2023-01-12T14:24:29.084Z,2.47
2023-01-12T14:26:34.824Z,2.80
2023-01-12T14:28:41.019Z,4.27
2023-01-12T14:30:50.688Z,2.00
2023-01-12T14:32:53.186Z,1.40
2023-01-12T14:34:55.522Z,2.40
2023-01-12T14:36:57.613Z,6.90
2023-01-12T14:38:59.879Z,2.50
2023-01-12T14:41:02.946Z,1.23
2023-01-12T14:43:23.620Z,1.97
2023-01-12T14:45:46.182Z,1.50
2023-01-12T14:47:48.278Z,2.00
2023-01-12T14:49:50.357Z,0.90
2023-01-12T14:51:57.679Z,1.17
2023-01-12T14:54:08.573Z,1.77
2023-01-12T14:56:25.071Z,1.30
2023-01-12T14:58:28.168Z,4.20
2023-01-12T15:00:32.565Z,4.13
2023-01-12T15:02:40.341Z,1.70
2023-01-12T15:05:06.907Z,1.50
2023-01-12T15:07:16.036Z,1.47
2023-01-12T15:09:37.038Z,1.73
2023-01-12T15:11:39.182Z,1.53
2023-01-12T15:13:41.173Z,2.27
2023-01-12T15:16:01.965Z,1.90
2023-01-12T15:18:22.636Z,1.83
2023-01-12T15:20:49.187Z,1.10
2023-01-12T15:23:09.747Z,1.10
2023-01-12T15:25:32.697Z,1.47
2023-01-12T15:27:35.155Z,1.40
2023-01-12T15:29:37.251Z,2.50
2023-01-12T15:31:39.519Z,1.40
2023-01-12T15:33:41.591Z,1.33
2023-01-12T15:35:47.037Z,1.63
2023-01-12T15:37:58.781Z,1.50
2023-01-12T15:40:01.421Z,3.80
2023-01-12T15:42:19.952Z,1.40
2023-01-12T15:44:22.121Z,1.40
2023-01-12T15:46:24.716Z,2.40
2023-01-12T15:48:26.767Z,1.37
2023-01-12T15:50:29.372Z,1.93
2023-01-12T15:52:32.548Z,2.63
2023-01-12T15:54:34.554Z,1.80
2023-01-12T15:56:36.552Z,1.47
2023-01-12T15:58:38.523Z,1.57
2023-01-12T16:00:40.643Z,1.50
2023-01-12T16:02:45.378Z,1.10
2023-01-12T16:04:47.444Z,1.33
2023-01-12T16:06:50.120Z,2.00
2023-01-12T16:08:52.098Z,3.13
2023-01-12T16:11:09.535Z,1.20
2023-01-12T16:13:11.978Z,2.10
2023-01-12T16:15:23.291Z,1.83
2023-01-12T16:17:25.629Z,1.57
2023-01-12T16:19:28.320Z,1.30
2023-01-12T16:21:30.432Z,1.30
2023-01-12T16:23:32.963Z,1.20
2023-01-12T16:25:35.713Z,2.30
2023-01-12T16:27:38.881Z,1.70
2023-01-12T16:29:41.038Z,2.97
2023-01-12T16:31:43.274Z,1.20
2023-01-12T16:33:45.740Z,1.10
2023-01-12T16:35:48.214Z,1.90
2023-01-12T16:37:54.584Z,1.20
2023-01-12T16:39:56.596Z,1.37
2023-01-12T16:42:03.691Z,2.70
2023-01-12T16:44:05.902Z,1.60
2023-01-12T16:46:07.895Z,1.43
2023-01-12T16:48:09.944Z,1.77
2023-01-12T16:50:11.951Z,2.30
2023-01-12T16:52:15.885Z,1.30
2023-01-12T16:54:18.865Z,1.30
2023-01-12T16:56:21.181Z,1.30
2023-01-12T16:58:23.234Z,1.20
2023-01-12T17:00:27.848Z,2.00
2023-01-12T17:02:31.626Z,1.40
2023-01-12T17:04:35.907Z,1.50
2023-01-12T17:06:41.933Z,1.40
2023-01-12T17:08:44.367Z,1.13
2023-01-12T17:10:46.499Z,2.10
2023-01-12T17:12:57.231Z,1.70
2023-01-12T17:15:00.206Z,1.40
2023-01-12T17:17:04.970Z,1.37
2023-01-12T17:19:07.338Z,1.37
2023-01-12T17:21:13.111Z,1.20
2023-01-12T17:23:15.283Z,1.03
2023-01-12T17:25:17.557Z,1.40
2023-01-12T17:27:20.189Z,1.40
2023-01-12T17:29:23.128Z,1.60
2023-01-12T17:31:25.626Z,1.30
2023-01-12T17:33:27.774Z,1.40
2023-01-12T17:35:29.788Z,1.27
2023-01-12T17:37:31.789Z,1.40
2023-01-12T17:39:34.814Z,1.20
2023-01-12T17:41:55.532Z,1.30
2023-01-12T17:43:57.735Z,1.10
2023-01-12T17:46:01.605Z,1.20
2023-01-12T17:48:03.888Z,1.17
2023-01-12T17:50:06.452Z,1.70
2023-01-12T17:52:08.396Z,1.40
2023-01-12T17:54:12.666Z,2.47
2023-01-12T17:56:14.697Z,1.27
2023-01-12T17:58:18.527Z,1.87
2023-01-12T18:00:21.056Z,1.40
2023-01-12T18:02:23.103Z,1.63
2023-01-12T18:04:25.199Z,1.20
2023-01-12T18:06:27.738Z,1.30
2023-01-12T18:08:29.823Z,1.33
2023-01-12T18:10:32.067Z,1.30
2023-01-12T18:12:34.278Z,1.53
2023-01-12T18:14:36.427Z,1.60
2023-01-12T18:16:38.549Z,1.40
2023-01-12T18:18:42.467Z,1.40
2023-01-12T18:20:45.063Z,2.40
2023-01-12T18:22:47.144Z,1.40
2023-01-12T18:24:49.218Z,1.30
2023-01-12T18:26:51.263Z,1.53
2023-01-12T18:28:54.525Z,1.40
2023-01-12T18:31:14.132Z,2.40
2023-01-12T18:33:16.119Z,2.30
2023-01-12T18:35:18.166Z,4.63
2023-01-12T18:37:20.135Z,5.30
2023-01-12T18:39:22.428Z,2.47
2023-01-12T18:41:43.027Z,2.23
2023-01-12T18:43:45.016Z,1.63
2023-01-12T18:45:47.070Z,3.33
2023-01-12T18:48:07.649Z,2.90
2023-01-12T18:50:36.788Z,2.60
2023-01-12T18:52:57.385Z,4.60
2023-01-12T18:54:59.465Z,2.33
2023-01-12T18:57:01.536Z,3.37
2023-01-12T18:59:04.382Z,3.53
2023-01-12T19:01:06.417Z,4.80
2023-01-12T19:03:08.519Z,2.97
2023-01-12T19:05:14.555Z,3.20
2023-01-12T19:07:41.802Z,3.83
2023-01-12T19:09:44.091Z,2.37
2023-01-12T19:11:46.048Z,3.83
2023-01-12T19:14:06.308Z,2.00
2023-01-12T19:16:30.180Z,8.07
2023-01-12T19:18:34.315Z,3.47
2023-01-12T19:20:39.760Z,2.60
2023-01-12T19:23:00.900Z,3.27
2023-01-12T19:25:22.067Z,6.67
2023-01-12T19:27:42.707Z,3.40
2023-01-12T19:29:45.308Z,2.30
2023-01-12T19:31:47.420Z,3.50
2023-01-12T19:33:49.384Z,3.40
2023-01-12T19:35:51.417Z,2.20
2023-01-12T19:37:53.563Z,4.40
2023-01-12T19:40:17.532Z,4.23
2023-01-12T19:42:38.474Z,3.77
2023-01-12T19:44:40.433Z,3.63
2023-01-12T19:46:42.421Z,3.23
2023-01-12T19:48:45.489Z,2.53
2023-01-12T19:50:48.483Z,2.70
2023-01-12T19:52:50.526Z,2.10
2023-01-12T19:54:52.494Z,3.77
2023-01-12T19:56:54.533Z,2.83
2023-01-12T19:58:56.769Z,4.70
2023-01-12T20:00:58.830Z,1.90
2023-01-12T20:03:00.892Z,1.77
2023-01-12T20:05:02.872Z,1.60
2023-01-12T20:07:04.914Z,1.40
2023-01-12T20:09:06.962Z,1.50
2023-01-12T20:11:08.974Z,1.93
2023-01-12T20:13:12.702Z,1.40
2023-01-12T20:15:15.403Z,1.77
2023-01-12T20:17:17.528Z,1.73
2023-01-12T20:19:20.582Z,1.40
2023-01-12T20:21:22.671Z,2.27
2023-01-12T20:23:24.651Z,3.00
2023-01-12T20:25:28.161Z,1.50
2023-01-12T20:27:30.615Z,1.53
2023-01-12T20:29:32.591Z,1.50
2023-01-12T20:31:35.610Z,1.50
2023-01-12T20:33:37.727Z,1.80
2023-01-12T20:35:45.606Z,1.80
2023-01-12T20:37:47.718Z,1.93
2023-01-12T20:39:53.131Z,2.00
2023-01-12T20:41:55.208Z,1.30
2023-01-12T20:43:57.287Z,1.90
2023-01-12T20:45:59.658Z,1.93
2023-01-12T20:48:01.618Z,1.70
2023-01-12T20:50:04.598Z,2.00
2023-01-12T20:52:06.623Z,1.43
2023-01-12T20:54:10.046Z,1.93
2023-01-12T20:56:12.097Z,2.50
2023-01-12T20:58:14.199Z,2.03
2023-01-12T21:00:16.753Z,1.63
2023-01-12T21:02:24.040Z,1.57
2023-01-12T21:04:26.007Z,2.27
2023-01-12T21:06:27.996Z,1.60
2023-01-12T21:08:30.041Z,1.40
2023-01-12T21:10:32.049Z,2.10
2023-01-12T21:12:34.411Z,2.80
2023-01-12T21:14:36.686Z,2.90
2023-01-12T21:16:38.758Z,3.43
2023-01-12T21:18:40.917Z,1.57
2023-01-12T21:20:43.724Z,1.83
2023-01-12T21:22:45.774Z,2.73
2023-01-12T21:24:47.783Z,5.53
2023-01-12T21:26:49.808Z,1.40
2023-01-12T21:28:51.889Z,1.67
2023-01-12T21:30:53.942Z,1.43
2023-01-12T21:32:56.811Z,1.27
2023-01-12T21:34:58.831Z,1.60
2023-01-12T21:37:00.851Z,7.60
2023-01-12T21:39:04.294Z,1.50
2023-01-12T21:41:06.658Z,2.53
2023-01-12T21:43:09.134Z,4.30
2023-01-12T21:45:11.249Z,1.40
2023-01-12T21:47:13.292Z,1.43
2023-01-12T21:49:16.562Z,1.63
2023-01-12T21:51:18.679Z,1.20
2023-01-12T21:53:22.334Z,1.77
2023-01-12T21:55:24.549Z,1.80
2023-01-12T21:57:26.593Z,1.70
2023-01-12T21:59:28.599Z,1.50
2023-01-12T22:01:30.929Z,2.37
2023-01-12T22:03:33.025Z,2.07
2023-01-12T22:05:35.839Z,2.73
2023-01-12T22:07:37.900Z,1.40
2023-01-12T22:09:40.648Z,2.70
2023-01-12T22:11:42.579Z,1.37
2023-01-12T22:13:44.695Z,2.10
2023-01-12T22:15:50.847Z,3.00
2023-01-12T22:17:54.294Z,1.47
2023-01-12T22:19:56.278Z,1.30
2023-01-12T22:21:58.289Z,1.60
2023-01-12T22:24:00.288Z,1.30
2023-01-12T22:26:07.048Z,1.50
2023-01-12T22:28:09.044Z,1.40
2023-01-12T22:30:16.770Z,2.23
2023-01-12T22:32:18.809Z,3.57
2023-01-12T22:34:20.780Z,1.50
2023-01-12T22:36:22.818Z,1.40
2023-01-12T22:38:24.810Z,2.27
2023-01-12T22:40:26.817Z,1.47
2023-01-12T22:42:47.492Z,1.60
2023-01-12T22:44:50.014Z,1.30
2023-01-12T22:46:52.368Z,1.40
2023-01-12T22:48:56.427Z,1.50
2023-01-12T22:51:00.572Z,2.43
2023-01-12T22:53:02.724Z,1.47
2023-01-12T22:55:05.584Z,1.93
2023-01-12T22:57:09.600Z,1.50
2023-01-12T22:59:11.664Z,1.50
2023-01-12T23:01:14.089Z,1.30
2023-01-12T23:03:16.454Z,1.97
2023-01-12T23:05:18.458Z,2.57
2023-01-12T23:07:20.589Z,3.80
2023-01-12T23:09:24.064Z,1.30
2023-01-12T23:11:26.797Z,1.27
2023-01-12T23:13:28.872Z,1.60
2023-01-12T23:15:31.167Z,1.30
2023-01-12T23:17:33.371Z,1.10
2023-01-12T23:19:35.394Z,5.03
2023-01-12T23:21:37.431Z,1.33
2023-01-12T23:23:40.400Z,2.60
2023-01-12T23:25:44.592Z,2.97
2023-01-12T23:27:46.754Z,1.60
2023-01-12T23:29:48.802Z,1.40
2023-01-12T23:31:50.828Z,1.63
2023-01-12T23:33:53.030Z,1.90
2023-01-12T23:35:55.793Z,1.33
2023-01-12T23:37:57.762Z,1.40
2023-01-12T23:39:59.769Z,2.87
2023-01-12T23:42:01.791Z,1.57
2023-01-12T23:44:06.324Z,1.93
2023-01-12T23:46:08.505Z,1.33
2023-01-12T23:48:10.582Z,1.20
2023-01-12T23:50:12.683Z,1.60
2023-01-12T23:52:17.158Z,1.20
2023-01-12T23:54:19.173Z,1.63
2023-01-12T23:56:22.154Z,2.40
2023-01-12T23:58:24.895Z,1.40
